Time;durP1;ratioP1;P1;durP2;ratioP2;P2;SDS_P1;SDS_P2;PMS_P1;PMS_P2;Temp;Humidity;BMP_temperature;BMP_pressure;BME280_temperature;BME280_humidity;BME280_pressure;Samples;Min_cycle;Max_cycle;Signal;HPM_P1;HPM_P2
2022/12/30 00:01:30;;;;;;;;;;;;;;;6.48;100.00;97820.53;5100106;28;19996;-73
2022/12/30 00:03:56;;;;;;;;;;;;;;;6.49;100.00;97813.38;5101544;28;19935;-74
2022/12/30 00:06:23;;;;;;;;;;;;;;;6.50;100.00;97828.22;5099667;28;19930;-74
2022/12/30 00:08:52;;;;;;;;;;;;;;;6.36;100.00;97850.78;5097979;28;19924;-73
2022/12/30 00:11:20;;;;;;;;;;;;;;;6.24;100.00;97842.91;5097941;28;19963;-73
2022/12/30 00:33:08;;;;;;;;;;;;;;;6.56;100.00;97848.50;5096914;28;19931;-73
2022/12/30 00:35:34;;;;;;;;;;;;;;;6.53;100.00;97850.84;5099920;28;19927;-72
2022/12/30 00:38:01;;;;;;;;;;;;;;;6.74;100.00;97842.19;5101032;28;19955;-73
2022/12/30 00:40:28;;;;;;;;;;;;;;;6.80;100.00;97820.00;5097684;28;19986;-74
2022/12/30 00:43:09;;;;;;;;;;;;;;;6.51;100.00;97835.16;5097050;28;19965;-74
2022/12/30 00:45:36;;;;;;;;;;;;;;;6.63;100.00;97841.19;5100201;28;19928;-73
2022/12/30 00:56:16;;;;;;;;;;;;;;;6.83;100.00;97838.09;5100353;28;19920;-74
2022/12/30 00:58:43;;;;;;;;;;;;;;;6.88;100.00;97841.63;5095896;28;19963;-74
2022/12/30 01:01:09;;;;;;;;;;;;;;;6.68;100.00;97854.56;5097053;28;20837;-74
2022/12/30 01:03:35;;;;;;;;;;;;;;;6.51;100.00;97854.53;5099631;28;19928;-74
2022/12/30 01:06:05;;;;;;;;;;;;;;;6.38;100.00;97876.03;5100116;28;19924;-74
2022/12/30 01:08:32;;;;;;;;;;;;;;;6.60;100.00;97870.88;5097968;28;19930;-74
2022/12/30 01:10:58;;;;;;;;;;;;;;;6.56;100.00;97867.06;5095392;28;19936;-74
2022/12/30 01:13:26;;;;;;;;;;;;;;;6.46;100.00;97883.63;5098211;28;19952;-74
2022/12/30 01:15:52;;;;;;;;;;;;;;;6.47;100.00;97893.19;5100125;28;19966;-74
2022/12/30 01:18:19;;;;;;;;;;;;;;;6.66;100.00;97892.97;5098286;28;19935;-74
2022/12/30 01:20:45;;;;;;;;;;;;;;;6.38;100.00;97891.94;5095451;28;19960;-73
2022/12/30 01:23:11;;;;;;;;;;;;;;;6.39;100.00;97898.88;5091205;28;19952;-74
2022/12/30 01:25:39;;;;;;;;;;;;;;;6.51;100.00;97889.03;5099076;28;19924;-73
2022/12/30 01:28:05;;;;;;;;;;;;;;;6.34;100.00;97896.13;5098542;28;19958;-73
2022/12/30 01:30:33;;;;;;;;;;;;;;;6.46;100.00;97890.78;5097633;28;19971;-73
2022/12/30 01:32:59;;;;;;;;;;;;;;;6.44;100.00;97888.34;5095473;28;19957;-74
2022/12/30 01:35:25;;;;;;;;;;;;;;;6.52;100.00;97887.19;5095880;28;19983;-74
2022/12/30 01:37:52;;;;;;;;;;;;;;;6.61;100.00;97895.56;5099657;28;19924;-74
2022/12/30 01:40:18;;;;;;;;;;;;;;;6.59;100.00;97892.34;5097638;28;20356;-74
2022/12/30 01:42:44;;;;;;;;;;;;;;;6.63;100.00;97894.28;5094352;28;20027;-73
2022/12/30 01:45:17;;;;;;;;;;;;;;;6.38;100.00;97894.59;5096091;28;19928;-74
2022/12/30 01:47:46;;;;;;;;;;;;;;;6.44;100.00;97895.50;5100435;28;20027;-74
2022/12/30 01:50:18;;;;;;;;;;;;;;;6.42;100.00;97897.59;5092270;28;20050;-73
2022/12/30 01:52:47;;;;;;;;;;;;;;;6.49;100.00;97901.72;5084468;28;19965;-73
2022/12/30 01:55:15;;;;;;;;;;;;;;;6.41;100.00;97902.09;5095768;28;19993;-74
2022/12/30 01:57:43;;;;;;;;;;;;;;;6.46;100.00;97898.75;5087272;28;19963;-73
2022/12/30 02:00:10;;;;;;;;;;;;;;;6.56;100.00;97898.13;5096414;28;19946;-73
2022/12/30 02:02:37;;;;;;;;;;;;;;;6.49;100.00;97899.06;5097545;28;19983;-73
2022/12/30 02:05:07;;;;;;;;;;;;;;;6.64;100.00;97897.72;5097526;28;19991;-73
2022/12/30 02:07:36;;;;;;;;;;;;;;;6.39;100.00;97890.91;5096220;28;19963;-73
2022/12/30 02:10:03;;;;;;;;;;;;;;;6.57;100.00;97900.53;5094955;28;19987;-73
2022/12/30 02:12:29;;;;;;;;;;;;;;;6.54;100.00;97898.34;5095547;28;19944;-74
2022/12/30 02:14:56;;;;;;;;;;;;;;;6.40;100.00;97911.09;5098722;28;20358;-73
2022/12/30 02:17:27;;;;;;;;;;;;;;;6.42;100.00;97908.19;5097108;28;20086;-73
2022/12/30 02:20:12;;;;;;;;;;;;;;;6.40;100.00;97916.41;5093502;28;19958;-73
2022/12/30 02:22:47;;;;;;;;;;;;;;;6.41;100.00;97920.66;5091663;28;19992;-73
2022/12/30 02:25:41;;;;;;;;;;;;;;;6.45;100.00;97919.16;5094760;28;19924;-73
2022/12/30 02:28:34;;;;;;;;;;;;;;;6.33;100.00;97921.03;5102384;28;19924;-73
2022/12/30 02:31:34;;;;;;;;;;;;;;;6.38;100.00;97907.06;5087999;28;19988;-73
2022/12/30 02:34:06;;;;;;;;;;;;;;;6.32;100.00;97908.81;5066827;28;19968;-73
2022/12/30 02:36:37;;;;;;;;;;;;;;;6.32;100.00;97908.00;5074717;28;19936;-73
2022/12/30 02:39:05;;;;;;;;;;;;;;;6.39;100.00;97904.19;5076033;28;19943;-73
2022/12/30 02:44:37;;;;;;;;;;;;;;;6.34;100.00;97909.41;5094620;28;19928;-74
2022/12/30 02:47:05;;;;;;;;;;;;;;;6.31;100.00;97909.06;5099755;28;19952;-73
2022/12/30 02:49:34;;;;;;;;;;;;;;;6.33;100.00;97907.78;5096364;28;19968;-73
2022/12/30 02:52:14;;;;;;;;;;;;;;;6.28;100.00;97907.66;5093073;28;19928;-73
2022/12/30 02:54:41;;;;;;;;;;;;;;;6.21;100.00;97904.34;5096624;28;19956;-73
2022/12/30 02:57:22;;;;;;;;;;;;;;;6.41;100.00;97902.09;5098223;28;19967;-73
2022/12/30 03:05:32;;;;;;;;;;;;;;;6.41;100.00;97896.78;5097570;28;19935;-73
2022/12/30 03:08:02;;;;;;;;;;;;;;;6.62;100.00;97929.81;5094067;28;19943;-73
2022/12/30 03:13:19;;;;;;;;;;;;;;;6.50;100.00;97927.19;5097611;28;19999;-73
2022/12/30 03:15:48;;;;;;;;;;;;;;;6.68;100.00;97928.06;5092806;28;20486;-74
2022/12/30 03:18:16;;;;;;;;;;;;;;;6.64;100.00;97934.88;5094145;28;19995;-74
2022/12/30 03:20:45;;;;;;;;;;;;;;;6.70;100.00;97947.19;5086082;28;19967;-73
2022/12/30 03:28:44;;;;;;;;;;;;;;;6.48;100.00;97950.50;5118796;28;19924;-73
2022/12/30 03:31:12;;;;;;;;;;;;;;;6.51;100.00;97955.34;5092957;28;19984;-73
2022/12/30 03:33:39;;;;;;;;;;;;;;;6.59;100.00;97961.31;5098541;28;19979;-73
2022/12/30 03:36:11;;;;;;;;;;;;;;;6.60;100.00;97957.63;5097764;28;19954;-73
2022/12/30 03:38:40;;;;;;;;;;;;;;;6.38;100.00;97955.59;5093344;28;19924;-74
2022/12/30 03:41:07;;;;;;;;;;;;;;;6.40;100.00;97950.91;5093995;28;19948;-74
2022/12/30 03:43:35;;;;;;;;;;;;;;;6.55;100.00;97963.66;5096398;28;19925;-74
2022/12/30 03:46:01;;;;;;;;;;;;;;;6.66;100.00;97969.94;5095877;28;19973;-74
2022/12/30 03:48:27;;;;;;;;;;;;;;;6.67;100.00;97968.91;5094753;28;19948;-74
2022/12/30 03:50:54;;;;;;;;;;;;;;;6.71;100.00;97978.81;5092726;28;20023;-73
2022/12/30 03:53:21;;;;;;;;;;;;;;;6.56;100.00;97975.06;5090993;28;19988;-74
2022/12/30 03:55:48;;;;;;;;;;;;;;;6.53;100.00;97974.47;5097245;28;20050;-74
2022/12/30 03:58:14;;;;;;;;;;;;;;;6.56;100.00;97975.06;5097662;28;19924;-74
2022/12/30 04:00:40;;;;;;;;;;;;;;;6.66;100.00;97961.97;5094225;28;19943;-73
2022/12/30 04:03:07;;;;;;;;;;;;;;;6.46;100.00;97962.41;5095833;28;20623;-74
2022/12/30 04:05:33;;;;;;;;;;;;;;;6.57;100.00;97960.75;5098692;28;19936;-74
2022/12/30 04:07:59;;;;;;;;;;;;;;;6.61;100.00;97969.84;5101004;28;20000;-73
2022/12/30 04:10:27;;;;;;;;;;;;;;;6.70;100.00;97968.44;5100007;28;19987;-74
2022/12/30 04:12:53;;;;;;;;;;;;;;;6.72;100.00;97971.66;5097646;28;19959;-73
2022/12/30 04:15:20;;;;;;;;;;;;;;;6.72;100.00;97977.75;5097891;28;19924;-73
2022/12/30 04:17:46;;;;;;;;;;;;;;;6.73;100.00;97981.22;5099653;28;19991;-73
2022/12/30 04:20:13;;;;;;;;;;;;;;;6.74;100.00;97990.81;5101536;28;19924;-74
2022/12/30 04:22:39;;;;;;;;;;;;;;;6.74;100.00;97996.13;5095188;28;20031;-74
2022/12/30 04:25:06;;;;;;;;;;;;;;;6.73;100.00;97991.84;5097350;28;19924;-74
2022/12/30 04:27:33;;;;;;;;;;;;;;;6.60;100.00;97997.41;5099462;28;19955;-74
2022/12/30 04:30:01;;;;;;;;;;;;;;;6.69;100.00;98007.44;5100970;28;19970;-74
2022/12/30 04:32:27;;;;;;;;;;;;;;;6.63;100.00;98002.25;5097984;28;19924;-74
2022/12/30 04:34:53;;;;;;;;;;;;;;;6.68;100.00;97997.06;5097409;28;19952;-74
2022/12/30 04:37:21;;;;;;;;;;;;;;;6.66;100.00;97993.81;5097785;28;19951;-74
2022/12/30 04:39:48;;;;;;;;;;;;;;;6.53;100.00;97992.25;5099775;28;19987;-73
2022/12/30 04:42:14;;;;;;;;;;;;;;;6.45;100.00;97984.66;5101240;28;19991;-74
2022/12/30 04:44:42;;;;;;;;;;;;;;;6.44;100.00;97989.16;5096667;28;20322;-74
2022/12/30 04:47:08;;;;;;;;;;;;;;;6.53;100.00;97990.41;5097091;28;19924;-74
2022/12/30 04:49:34;;;;;;;;;;;;;;;6.53;100.00;97994.09;5099411;28;19920;-74
2022/12/30 04:52:01;;;;;;;;;;;;;;;6.64;100.00;98001.22;5098910;28;20011;-74
2022/12/30 04:54:27;;;;;;;;;;;;;;;6.63;100.00;98003.06;5094766;28;19924;-74
2022/12/30 04:56:54;;;;;;;;;;;;;;;6.64;100.00;98001.22;5096413;28;19930;-73
2022/12/30 04:59:20;;;;;;;;;;;;;;;6.64;100.00;98010.00;5096956;28;19924;-73
2022/12/30 05:01:48;;;;;;;;;;;;;;;6.59;100.00;98003.78;5098653;28;19952;-73
2022/12/30 05:04:14;;;;;;;;;;;;;;;6.53;100.00;98010.03;5099812;28;19924;-73
2022/12/30 05:06:40;;;;;;;;;;;;;;;6.53;100.00;98008.16;5096821;28;19964;-73
2022/12/30 05:09:07;;;;;;;;;;;;;;;6.57;100.00;98019.13;5099005;28;19924;-72
2022/12/30 05:11:33;;;;;;;;;;;;;;;6.61;100.00;98028.22;5098955;28;19973;-73
2022/12/30 05:13:59;;;;;;;;;;;;;;;6.53;100.00;98038.16;5100022;28;19921;-72
2022/12/30 05:16:26;;;;;;;;;;;;;;;6.50;100.00;98043.13;5098532;28;19924;-73
2022/12/30 05:18:53;;;;;;;;;;;;;;;6.44;100.00;98034.25;5096058;28;20035;-72
2022/12/30 05:21:20;;;;;;;;;;;;;;;6.51;100.00;98045.56;5096958;28;19987;-74
2022/12/30 05:26:30;;;;;;;;;;;;;;;6.58;100.00;98055.22;5096516;28;20376;-73
2022/12/30 05:28:56;;;;;;;;;;;;;;;6.62;100.00;98057.19;5094977;28;19935;-73
2022/12/30 05:31:23;;;;;;;;;;;;;;;6.59;100.00;98057.66;5095768;28;19924;-74
2022/12/30 05:33:49;;;;;;;;;;;;;;;6.56;100.00;98067.94;5098355;28;19928;-73
2022/12/30 05:36:17;;;;;;;;;;;;;;;6.60;100.00;98058.44;5098661;28;19962;-73
2022/12/30 05:38:43;;;;;;;;;;;;;;;6.56;100.00;98071.38;5087997;28;19965;-74
2022/12/30 05:41:10;;;;;;;;;;;;;;;6.58;100.00;98077.28;5095878;28;20313;-74
2022/12/30 05:43:37;;;;;;;;;;;;;;;6.52;100.00;98062.28;5097421;28;19939;-74
2022/12/30 05:46:03;;;;;;;;;;;;;;;6.32;100.00;98061.81;5099359;28;20496;-74
2022/12/30 05:48:29;;;;;;;;;;;;;;;6.32;100.00;98070.59;5097512;28;19951;-74
2022/12/30 05:50:56;;;;;;;;;;;;;;;6.45;100.00;98062.41;5095743;28;20000;-74
2022/12/30 05:53:24;;;;;;;;;;;;;;;6.46;100.00;98065.88;5091658;28;19992;-74
2022/12/30 05:55:50;;;;;;;;;;;;;;;6.42;100.00;98062.88;5101611;28;19924;-74
2022/12/30 05:58:16;;;;;;;;;;;;;;;6.38;100.00;98066.19;5099439;28;19932;-74
2022/12/30 06:00:43;;;;;;;;;;;;;;;6.34;100.00;98068.53;5095798;28;19924;-74
2022/12/30 06:03:09;;;;;;;;;;;;;;;6.32;100.00;98059.19;5094556;28;19925;-74
2022/12/30 06:05:35;;;;;;;;;;;;;;;6.33;100.00;98068.75;5097912;28;19927;-73
2022/12/30 06:08:02;;;;;;;;;;;;;;;6.35;100.00;98074.63;5099732;28;19924;-74
2022/12/30 06:10:29;;;;;;;;;;;;;;;6.32;100.00;98083.03;5097760;28;19924;-74
2022/12/30 06:12:56;;;;;;;;;;;;;;;6.24;100.00;98075.44;5095717;28;19971;-74
2022/12/30 06:15:22;;;;;;;;;;;;;;;6.24;100.00;98065.66;5094993;28;19939;-74
2022/12/30 06:17:48;;;;;;;;;;;;;;;6.30;100.00;98072.69;5099003;28;20066;-74
2022/12/30 06:20:15;;;;;;;;;;;;;;;6.34;100.00;98073.84;5097422;28;19995;-74
2022/12/30 06:22:41;;;;;;;;;;;;;;;6.35;100.00;98075.44;5083101;28;19929;-74
2022/12/30 06:25:08;;;;;;;;;;;;;;;6.35;100.00;98070.13;5092899;28;20000;-74
2022/12/30 06:27:36;;;;;;;;;;;;;;;6.28;100.00;98066.00;5095901;28;19996;-74
2022/12/30 06:30:03;;;;;;;;;;;;;;;6.27;100.00;98069.69;5096919;28;20000;-74
2022/12/30 06:32:31;;;;;;;;;;;;;;;6.23;100.00;98071.97;5096042;28;20058;-74
2022/12/30 06:34:57;;;;;;;;;;;;;;;6.30;100.00;98064.72;5093046;28;19992;-74
2022/12/30 06:37:24;;;;;;;;;;;;;;;6.23;100.00;98074.63;5094888;28;19951;-74
2022/12/30 06:39:50;;;;;;;;;;;;;;;6.23;100.00;98058.72;5097477;28;19923;-74
2022/12/30 06:42:17;;;;;;;;;;;;;;;6.27;100.00;98059.88;5098428;28;19920;-74
2022/12/30 06:44:44;;;;;;;;;;;;;;;6.27;100.00;98070.50;5095815;28;20019;-74
2022/12/30 06:47:11;;;;;;;;;;;;;;;6.30;100.00;98071.88;5093151;28;19955;-74
2022/12/30 06:49:37;;;;;;;;;;;;;;;6.22;100.00;98067.72;5097971;28;19924;-74
2022/12/30 06:52:03;;;;;;;;;;;;;;;6.02;100.00;98077.06;5097872;28;19944;-74
2022/12/30 06:54:30;;;;;;;;;;;;;;;5.94;100.00;98075.56;5092959;28;19979;-74
2022/12/30 06:56:56;;;;;;;;;;;;;;;5.85;100.00;98083.00;5094256;28;19983;-74
2022/12/30 06:59:22;;;;;;;;;;;;;;;5.83;100.00;98087.72;5093566;28;19928;-74
2022/12/30 07:01:50;;;;;;;;;;;;;;;5.77;100.00;98085.97;5097881;28;19924;-75
2022/12/30 07:04:16;;;;;;;;;;;;;;;5.75;100.00;98095.19;5097901;28;19924;-75
2022/12/30 07:06:43;;;;;;;;;;;;;;;5.74;100.00;98090.91;5094779;28;19991;-75
2022/12/30 07:09:10;;;;;;;;;;;;;;;5.75;100.00;98095.19;5094673;28;19932;-73
2022/12/30 07:11:36;;;;;;;;;;;;;;;5.78;100.00;98106.16;5095686;28;19972;-74
2022/12/30 07:14:02;;;;;;;;;;;;;;;5.87;100.00;98106.66;5096201;28;19948;-74
2022/12/30 07:16:29;;;;;;;;;;;;;;;5.88;100.00;98114.38;5094311;28;19983;-74
2022/12/30 07:18:56;;;;;;;;;;;;;;;5.98;100.00;98113.81;5092375;28;19932;-74
2022/12/30 07:21:23;;;;;;;;;;;;;;;6.00;100.00;98121.53;5094742;28;19995;-74
2022/12/30 07:23:49;;;;;;;;;;;;;;;5.91;100.00;98115.78;5092244;28;19924;-74
2022/12/30 07:26:16;;;;;;;;;;;;;;;5.95;100.00;98116.91;5097738;28;19955;-75
2022/12/30 07:28:42;;;;;;;;;;;;;;;5.98;100.00;98119.91;5086635;28;19971;-74
2022/12/30 07:31:08;;;;;;;;;;;;;;;6.08;100.00;98127.31;5097382;28;19992;-74
2022/12/30 07:33:35;;;;;;;;;;;;;;;5.97;100.00;98125.47;5095379;28;19980;-74
2022/12/30 07:36:02;;;;;;;;;;;;;;;5.89;100.00;98131.09;5098032;28;19979;-74
2022/12/30 07:38:30;;;;;;;;;;;;;;;5.88;100.00;98126.84;5097857;28;19951;-74
2022/12/30 07:40:56;;;;;;;;;;;;;;;5.80;100.00;98117.31;5097373;28;19948;-72
2022/12/30 07:43:22;;;;;;;;;;;;;;;5.78;100.00;98118.59;5097928;28;20676;-74
2022/12/30 07:45:49;;;;;;;;;;;;;;;5.67;100.00;98111.41;5100761;28;19924;-75
2022/12/30 07:48:15;;;;;;;;;;;;;;;5.71;100.00;98108.09;5101130;28;19981;-75
2022/12/30 07:50:42;;;;;;;;;;;;;;;5.75;100.00;98119.03;5087786;28;19982;-75
2022/12/30 07:53:10;;;;;;;;;;;;;;;5.82;100.00;98122.38;5092337;28;19988;-74
2022/12/30 07:55:38;;;;;;;;;;;;;;;5.84;100.00;98123.78;5098440;28;19971;-74
2022/12/30 07:58:04;;;;;;;;;;;;;;;5.84;100.00;98130.94;5100741;28;19983;-74
2022/12/30 08:00:31;;;;;;;;;;;;;;;5.83;100.00;98138.06;5098324;28;20004;-74
2022/12/30 08:02:57;;;;;;;;;;;;;;;5.84;100.00;98145.00;5095822;28;19924;-74
2022/12/30 08:05:24;;;;;;;;;;;;;;;5.85;100.00;98137.81;5097209;28;19928;-74
2022/12/30 08:07:51;;;;;;;;;;;;;;;5.86;100.00;98132.34;5100955;28;20018;-74
2022/12/30 08:10:19;;;;;;;;;;;;;;;5.91;100.00;98134.34;5099128;28;19926;-74
2022/12/30 08:12:46;;;;;;;;;;;;;;;5.83;100.00;98135.41;5095921;28;19988;-74
2022/12/30 08:15:12;;;;;;;;;;;;;;;5.83;100.00;98147.84;5097288;28;19970;-74
2022/12/30 08:17:39;;;;;;;;;;;;;;;5.82;100.00;98143.59;5103123;28;19972;-74
2022/12/30 08:20:09;;;;;;;;;;;;;;;5.72;100.00;98140.69;5102512;28;19963;-74
2022/12/30 08:22:35;;;;;;;;;;;;;;;5.71;100.00;98147.03;5093093;28;19984;-74
2022/12/30 08:25:01;;;;;;;;;;;;;;;5.71;100.00;98139.88;5095964;28;19960;-74
2022/12/30 08:27:29;;;;;;;;;;;;;;;5.58;100.00;98137.41;5098923;28;19996;-74
2022/12/30 08:29:55;;;;;;;;;;;;;;;5.69;100.00;98136.66;5099511;28;19947;-74
2022/12/30 08:32:22;;;;;;;;;;;;;;;5.76;100.00;98152.44;5099583;28;19950;-74
2022/12/30 08:34:48;;;;;;;;;;;;;;;5.79;100.00;98146.69;5096900;28;20363;-74
2022/12/30 08:37:14;;;;;;;;;;;;;;;5.85;100.00;98148.44;5096869;28;20015;-74
2022/12/30 08:39:41;;;;;;;;;;;;;;;5.82;100.00;98146.22;5099989;28;19931;-74
2022/12/30 08:42:08;;;;;;;;;;;;;;;5.84;100.00;98141.53;5099707;28;19958;-74
2022/12/30 08:44:35;;;;;;;;;;;;;;;5.85;100.00;98138.66;5095988;28;19928;-74
2022/12/30 08:47:02;;;;;;;;;;;;;;;5.93;100.00;98132.25;5096795;28;19963;-74
2022/12/30 08:49:28;;;;;;;;;;;;;;;6.07;100.00;98138.13;5096660;28;19920;-75
2022/12/30 08:51:54;;;;;;;;;;;;;;;6.10;100.00;98151.75;5100113;28;19943;-75
2022/12/30 08:54:21;;;;;;;;;;;;;;;6.13;100.00;98148.63;5094447;28;19931;-75
2022/12/30 08:56:48;;;;;;;;;;;;;;;6.16;100.00;98153.47;5095655;28;20644;-75
2022/12/30 08:59:15;;;;;;;;;;;;;;;6.14;100.00;98144.97;5096976;28;20336;-74
2022/12/30 09:01:43;;;;;;;;;;;;;;;6.10;100.00;98143.78;5098884;28;19924;-74
2022/12/30 09:04:09;;;;;;;;;;;;;;;6.15;100.00;98141.28;5102019;28;19924;-74
2022/12/30 09:06:38;;;;;;;;;;;;;;;6.18;100.00;98146.13;5097911;28;19959;-75
2022/12/30 09:11:45;;;;;;;;;;;;;;;6.21;100.00;98139.56;5088256;28;19999;-74
2022/12/30 09:14:13;;;;;;;;;;;;;;;6.24;100.00;98141.75;5096340;28;20350;-74
2022/12/30 09:16:40;;;;;;;;;;;;;;;6.32;100.00;98136.09;5100267;28;19942;-74
2022/12/30 09:19:07;;;;;;;;;;;;;;;6.30;100.00;98138.19;5100895;28;19923;-75
2022/12/30 09:21:34;;;;;;;;;;;;;;;6.43;100.00;98141.41;5097194;28;19984;-76
2022/12/30 09:24:00;;;;;;;;;;;;;;;6.49;100.00;98135.19;5091465;28;19927;-74
2022/12/30 09:26:27;;;;;;;;;;;;;;;6.45;100.00;98131.38;5099012;28;19924;-75
2022/12/30 09:28:54;;;;;;;;;;;;;;;6.39;100.00;98137.59;5096806;28;19924;-76
2022/12/30 09:31:20;;;;;;;;;;;;;;;6.46;100.00;98122.38;5097300;28;20301;-75
2022/12/30 09:33:46;;;;;;;;;;;;;;;6.50;100.00;98126.19;5100114;28;19924;-75
2022/12/30 09:36:15;;;;;;;;;;;;;;;6.54;100.00;98129.19;5099459;28;19924;-75
2022/12/30 09:38:41;;;;;;;;;;;;;;;6.56;100.00;98121.00;5096044;28;19976;-75
2022/12/30 09:41:08;;;;;;;;;;;;;;;6.57;100.00;98119.94;5095451;28;20018;-74
2022/12/30 09:43:38;;;;;;;;;;;;;;;6.57;100.00;98118.09;5097743;28;19933;-74
2022/12/30 09:46:10;;;;;;;;;;;;;;;6.58;100.00;98113.59;5098878;28;20589;-73
2022/12/30 09:48:39;;;;;;;;;;;;;;;6.56;100.00;98118.34;5097408;28;19931;-74
2022/12/30 09:51:08;;;;;;;;;;;;;;;6.70;100.00;98111.75;5097393;28;19924;-80
2022/12/30 09:53:39;;;;;;;;;;;;;;;6.71;100.00;98110.72;5093404;28;19924;-74
2022/12/30 09:56:10;;;;;;;;;;;;;;;6.69;100.00;98104.81;5097639;28;19962;-74
2022/12/30 09:58:37;;;;;;;;;;;;;;;6.71;100.00;98098.25;5094631;28;19958;-74
2022/12/30 10:01:08;;;;;;;;;;;;;;;6.73;100.00;98100.66;5093338;28;19924;-74
2022/12/30 10:03:35;;;;;;;;;;;;;;;6.77;100.00;98096.50;5097046;28;19920;-75
2022/12/30 10:06:09;;;;;;;;;;;;;;;6.71;100.00;98108.06;5098215;28;19924;-74
2022/12/30 10:08:46;;;;;;;;;;;;;;;6.81;100.00;98105.59;5095149;28;20295;-74
2022/12/30 10:11:26;;;;;;;;;;;;;;;6.82;100.00;98101.91;5095349;28;19946;-74
2022/12/30 10:13:57;;;;;;;;;;;;;;;6.84;100.00;98090.00;5087346;28;19931;-74
2022/12/30 10:16:37;;;;;;;;;;;;;;;6.87;100.00;98091.41;5096552;28;19960;-74
2022/12/30 10:19:10;;;;;;;;;;;;;;;6.88;100.00;98082.38;5098881;28;19924;-74
2022/12/30 10:21:44;;;;;;;;;;;;;;;6.91;100.00;98080.06;5095016;28;19924;-74
2022/12/30 10:24:26;;;;;;;;;;;;;;;6.96;100.00;98069.53;5091001;28;19924;-74
2022/12/30 10:26:53;;;;;;;;;;;;;;;7.02;100.00;98063.28;5121000;27;19924;-75
2022/12/30 10:29:20;;;;;;;;;;;;;;;7.04;100.00;98044.47;5095271;28;19925;-74
2022/12/30 10:31:48;;;;;;;;;;;;;;;7.04;100.00;98042.63;5096996;28;19924;-75
2022/12/30 10:34:15;;;;;;;;;;;;;;;7.05;100.00;98038.13;5098065;28;19931;-75
2022/12/30 10:36:47;;;;;;;;;;;;;;;7.10;100.00;98032.09;5087997;28;20011;-75
2022/12/30 10:39:15;;;;;;;;;;;;;;;7.07;100.00;98022.75;5097337;28;19935;-74
2022/12/30 10:41:47;;;;;;;;;;;;;;;7.17;100.00;98022.16;5086233;28;19939;-74
2022/12/30 10:44:17;;;;;;;;;;;;;;;7.10;100.00;98022.28;5095369;28;19924;-74
2022/12/30 10:46:58;;;;;;;;;;;;;;;7.16;100.00;98009.91;5082049;28;19925;-74
2022/12/30 10:49:33;;;;;;;;;;;;;;;7.09;100.00;98010.03;5089444;28;19931;-75
2022/12/30 10:52:01;;;;;;;;;;;;;;;7.07;100.00;97998.88;5097216;28;20027;-74
2022/12/30 10:54:27;;;;;;;;;;;;;;;7.03;100.00;98000.38;5092865;28;19920;-75
2022/12/30 10:56:55;;;;;;;;;;;;;;;7.21;100.00;97991.41;5093169;28;19921;-75
2022/12/30 10:59:23;;;;;;;;;;;;;;;7.20;100.00;98001.22;5093792;28;20298;-75
2022/12/30 11:01:55;;;;;;;;;;;;;;;7.32;100.00;97988.69;5097265;28;19995;-75
2022/12/30 11:04:37;;;;;;;;;;;;;;;7.30;100.00;97985.47;5096139;28;19924;-74
2022/12/30 11:07:05;;;;;;;;;;;;;;;7.29;100.00;97978.53;5092998;28;19984;-74
2022/12/30 11:09:32;;;;;;;;;;;;;;;7.33;100.00;97978.88;5095635;28;20000;-74
2022/12/30 11:14:46;;;;;;;;;;;;;;;7.43;100.00;97969.19;5085898;28;20019;-75
2022/12/30 11:17:20;;;;;;;;;;;;;;;7.56;100.00;97954.78;5094796;28;19920;-75
2022/12/30 11:19:49;;;;;;;;;;;;;;;7.48;100.00;97948.03;5087191;28;20592;-75
2022/12/30 11:22:16;;;;;;;;;;;;;;;7.50;100.00;97945.13;5091318;28;19999;-75
2022/12/30 11:24:45;;;;;;;;;;;;;;;7.61;100.00;97947.69;5088460;28;19917;-74
2022/12/30 11:27:13;;;;;;;;;;;;;;;7.36;100.00;97930.56;5095963;28;20011;-75
2022/12/30 11:29:39;;;;;;;;;;;;;;;7.60;100.00;97930.16;5097942;28;19935;-74
2022/12/30 11:32:12;;;;;;;;;;;;;;;7.70;100.00;97931.34;5098064;28;19935;-75
2022/12/30 11:34:39;;;;;;;;;;;;;;;7.32;100.00;97930.25;5095008;28;19947;-75
2022/12/30 11:37:21;;;;;;;;;;;;;;;7.50;100.00;97931.84;5093970;28;19928;-75
2022/12/30 11:39:48;;;;;;;;;;;;;;;7.65;100.00;97918.78;5099226;28;19982;-75
2022/12/30 11:42:28;;;;;;;;;;;;;;;7.65;100.00;97912.66;5089550;28;20011;-74
2022/12/30 11:45:12;;;;;;;;;;;;;;;7.77;100.00;97913.38;5082722;28;20337;-74
2022/12/30 11:47:43;;;;;;;;;;;;;;;7.86;100.00;97903.94;5094724;28;19924;-74
2022/12/30 11:50:14;;;;;;;;;;;;;;;7.82;100.00;97892.19;5097006;28;20010;-74
2022/12/30 11:52:41;;;;;;;;;;;;;;;7.94;100.00;97890.22;5089929;28;19932;-74
2022/12/30 11:55:18;;;;;;;;;;;;;;;8.02;100.00;97884.47;5093545;28;20272;-75
2022/12/30 11:57:48;;;;;;;;;;;;;;;8.06;100.00;97878.41;5085780;28;19924;-75
2022/12/30 12:00:27;;;;;;;;;;;;;;;8.12;100.00;97874.75;5092100;28;19963;-74
2022/12/30 12:02:57;;;;;;;;;;;;;;;8.09;100.00;97867.28;5099091;28;19931;-75
2022/12/30 12:05:26;;;;;;;;;;;;;;;8.03;100.00;97864.78;5090865;28;19992;-75
2022/12/30 12:07:55;;;;;;;;;;;;;;;7.99;100.00;97856.50;5095293;28;19920;-74
2022/12/30 12:10:23;;;;;;;;;;;;;;;8.00;100.00;97859.97;5097206;28;19935;-74
2022/12/30 12:12:54;;;;;;;;;;;;;;;8.01;100.00;97859.75;5096668;28;20577;-73
2022/12/30 12:15:25;;;;;;;;;;;;;;;8.02;100.00;97865.84;5094872;28;19992;-75
2022/12/30 12:17:55;;;;;;;;;;;;;;;7.98;100.00;97860.22;5097449;28;19924;-75
2022/12/30 12:20:25;;;;;;;;;;;;;;;7.99;100.00;97861.00;5094945;28;19946;-74
2022/12/30 12:22:57;;;;;;;;;;;;;;;8.25;100.00;97865.59;5088294;28;19924;-74
2022/12/30 12:25:25;;;;;;;;;;;;;;;8.34;100.00;97858.00;5098042;28;20364;-74
2022/12/30 12:27:53;;;;;;;;;;;;;;;8.49;100.00;97861.63;5099379;28;20492;-74
2022/12/30 12:30:20;;;;;;;;;;;;;;;8.61;100.00;97858.81;5098343;28;19948;-74
2022/12/30 12:33:13;;;;;;;;;;;;;;;8.60;100.00;97855.34;5096629;28;20243;-74
2022/12/30 12:35:46;;;;;;;;;;;;;;;8.65;100.00;97857.28;5097966;27;19947;-75
2022/12/30 12:38:21;;;;;;;;;;;;;;;8.68;100.00;97844.25;5099775;28;19987;-74
2022/12/30 12:40:55;;;;;;;;;;;;;;;8.61;100.00;97848.97;5088525;28;19980;-74
2022/12/30 12:43:24;;;;;;;;;;;;;;;8.58;100.00;97854.00;5096746;28;19978;-74
2022/12/30 12:46:14;;;;;;;;;;;;;;;8.51;100.00;97843.53;5099691;28;20017;-74
2022/12/30 12:48:54;;;;;;;;;;;;;;;8.25;100.00;97844.31;5094619;28;20292;-74
2022/12/30 12:51:29;;;;;;;;;;;;;;;8.42;100.00;97837.06;5094913;28;19988;-74
2022/12/30 12:54:02;;;;;;;;;;;;;;;8.67;100.00;97834.66;5095385;28;20000;-75
2022/12/30 12:56:34;;;;;;;;;;;;;;;8.79;100.00;97833.72;5096862;28;19924;-74
2022/12/30 12:59:10;;;;;;;;;;;;;;;8.79;100.00;97833.72;5098272;28;19924;-74
2022/12/30 13:01:40;;;;;;;;;;;;;;;8.82;100.00;97841.19;5098661;28;19967;-73
2022/12/30 13:04:17;;;;;;;;;;;;;;;8.83;100.00;97840.13;5099460;28;19963;-74
2022/12/30 13:06:47;;;;;;;;;;;;;;;8.78;100.00;97840.88;5091348;28;20565;-74
2022/12/30 13:09:22;;;;;;;;;;;;;;;8.82;100.00;97818.00;5087820;28;19932;-74
2022/12/30 13:11:53;;;;;;;;;;;;;;;8.90;100.00;97835.41;5088512;28;19924;-74
2022/12/30 13:14:27;;;;;;;;;;;;;;;8.87;100.00;97835.91;5094737;28;19932;-74
2022/12/30 13:16:55;;;;;;;;;;;;;;;8.70;100.00;97832.56;5099023;28;19931;-74
2022/12/30 13:19:25;;;;;;;;;;;;;;;8.74;100.00;97842.44;5098687;28;20723;-74
2022/12/30 13:21:53;;;;;;;;;;;;;;;8.32;100.00;97833.50;5094320;28;20007;-74
2022/12/30 13:24:24;;;;;;;;;;;;;;;8.53;100.00;97822.81;5093986;28;19968;-72
2022/12/30 13:26:51;;;;;;;;;;;;;;;8.62;100.00;97817.84;5095485;28;19929;-74
2022/12/30 13:29:18;;;;;;;;;;;;;;;8.68;100.00;97822.97;5094370;28;19935;-75
2022/12/30 13:31:50;;;;;;;;;;;;;;;8.72;100.00;97823.28;5097776;28;19950;-75
2022/12/30 13:34:22;;;;;;;;;;;;;;;8.70;100.00;97819.25;5097780;28;19924;-74
2022/12/30 13:36:54;;;;;;;;;;;;;;;8.68;100.00;97817.63;5088225;28;19988;-75
2022/12/30 13:39:26;;;;;;;;;;;;;;;8.83;100.00;97797.50;5095016;28;20754;-73
2022/12/30 13:42:10;;;;;;;;;;;;;;;8.74;100.00;97799.03;5098470;28;19931;-74
2022/12/30 13:44:41;;;;;;;;;;;;;;;8.65;100.00;97796.84;5069557;28;20005;-74
2022/12/30 13:47:23;;;;;;;;;;;;;;;8.70;100.00;97795.31;5098354;28;19928;-74
2022/12/30 13:49:49;;;;;;;;;;;;;;;8.73;100.00;97790.25;5088654;28;19963;-75